createdAt,value
2022-11-09T00:01:30.988Z,100292.98
2022-11-09T00:04:04.212Z,100293.51
2022-11-09T00:06:34.620Z,100288.89
2022-11-09T00:09:08.085Z,100289.77
2022-11-09T00:11:38.178Z,100289.36
2022-11-09T00:14:07.127Z,100286.48
2022-11-09T00:16:36.579Z,100281.88
2022-11-09T00:19:05.686Z,100286.25
2022-11-09T00:21:37.820Z,100292.12
2022-11-09T00:24:07.031Z,100289.00
2022-11-09T00:26:35.922Z,100287.08
2022-11-09T00:29:05.001Z,100288.09
2022-11-09T00:31:35.489Z,100288.39
2022-11-09T00:34:04.503Z,100289.08
2022-11-09T00:36:33.428Z,100287.56
2022-11-09T00:39:02.323Z,100283.83
2022-11-09T00:41:31.456Z,100280.33
2022-11-09T00:44:00.392Z,100274.27
2022-11-09T00:46:29.584Z,100274.14
2022-11-09T00:48:58.916Z,100266.15
2022-11-09T00:51:27.962Z,100264.32
2022-11-09T00:53:58.568Z,100272.20
2022-11-09T00:56:27.625Z,100273.63
2022-11-09T00:58:56.691Z,100266.88
2022-11-09T01:01:25.814Z,100268.00
2022-11-09T01:03:54.912Z,100267.45
2022-11-09T01:06:26.656Z,100265.64
2022-11-09T01:08:55.628Z,100258.80
2022-11-09T01:11:24.762Z,100260.48
2022-11-09T01:14:00.186Z,100264.20
2022-11-09T01:16:30.676Z,100266.02
2022-11-09T01:19:00.682Z,100268.77
2022-11-09T01:21:29.686Z,100263.81
2022-11-09T01:24:02.110Z,100264.91
2022-11-09T01:26:31.191Z,100265.81
2022-11-09T01:29:00.186Z,100265.02
2022-11-09T01:31:29.126Z,100267.27
2022-11-09T01:33:58.031Z,100266.86
2022-11-09T01:36:27.078Z,100266.70
2022-11-09T01:38:56.081Z,100263.25
2022-11-09T01:41:28.727Z,100257.41
2022-11-09T01:44:12.927Z,100259.69
2022-11-09T01:46:57.475Z,100259.73
2022-11-09T01:49:31.926Z,100257.66
2022-11-09T01:52:18.095Z,100258.48
2022-11-09T01:54:57.436Z,100256.49
2022-11-09T01:57:36.711Z,100262.48
2022-11-09T02:00:14.319Z,100257.94
2022-11-09T02:02:51.607Z,100256.42
2022-11-09T02:05:26.992Z,100261.54
2022-11-09T02:07:58.545Z,100257.23
2022-11-09T02:10:42.466Z,100248.78
2022-11-09T02:13:13.831Z,100246.09
2022-11-09T02:15:45.617Z,100246.16
2022-11-09T02:18:15.331Z,100244.45
2022-11-09T02:20:50.783Z,100245.25
2022-11-09T02:23:21.404Z,100242.08
2022-11-09T02:26:00.781Z,100242.30
2022-11-09T02:28:31.147Z,100240.45
2022-11-09T02:31:02.286Z,100243.58
2022-11-09T02:34:12.263Z,100242.48
2022-11-09T02:36:43.578Z,100237.53
2022-11-09T02:39:20.812Z,100235.84
2022-11-09T02:42:03.198Z,100232.98
2022-11-09T02:44:41.043Z,100227.91
2022-11-09T02:47:10.335Z,100226.05
2022-11-09T02:49:39.356Z,100225.89
2022-11-09T02:52:10.083Z,100230.41
2022-11-09T02:54:40.381Z,100228.86
2022-11-09T02:57:09.396Z,100228.14
2022-11-09T02:59:39.268Z,100230.04
2022-11-09T03:02:08.587Z,100233.67
2022-11-09T03:04:37.683Z,100236.08
2022-11-09T03:07:08.324Z,100240.19
2022-11-09T03:09:38.396Z,100243.23
2022-11-09T03:12:26.304Z,100241.80
2022-11-09T03:15:01.521Z,100241.44
2022-11-09T03:17:32.655Z,100243.65
2022-11-09T03:20:02.075Z,100243.29
2022-11-09T03:22:31.264Z,100244.96
2022-11-09T03:25:00.409Z,100248.20
2022-11-09T03:27:29.738Z,100247.05
2022-11-09T03:29:58.761Z,100244.52
2022-11-09T03:32:27.831Z,100240.11
2022-11-09T03:34:57.011Z,100239.71
2022-11-09T03:37:25.990Z,100243.81
2022-11-09T03:39:55.120Z,100239.42
2022-11-09T03:42:24.090Z,100240.03
2022-11-09T03:44:53.102Z,100239.51
2022-11-09T03:47:22.040Z,100241.53
2022-11-09T03:49:50.986Z,100247.83
2022-11-09T03:52:20.077Z,100242.86
2022-11-09T03:54:49.009Z,100241.76
2022-11-09T03:57:20.673Z,100242.73
2022-11-09T03:59:50.131Z,100240.59
2022-11-09T04:02:19.076Z,100237.45
2022-11-09T04:04:47.923Z,100236.91
2022-11-09T04:07:17.379Z,100236.88
2022-11-09T04:09:46.431Z,100235.42
2022-11-09T04:12:17.351Z,100231.05
2022-11-09T04:14:46.196Z,100235.86
2022-11-09T04:17:15.334Z,100235.33
2022-11-09T04:19:44.283Z,100232.16
2022-11-09T04:22:13.400Z,100233.71
2022-11-09T04:24:42.905Z,100231.44
2022-11-09T04:27:11.828Z,100226.23
2022-11-09T04:29:43.516Z,100220.73
2022-11-09T04:32:12.455Z,100220.83
2022-11-09T04:34:41.590Z,100216.84
2022-11-09T04:37:10.594Z,100221.69
2022-11-09T04:39:39.696Z,100224.91
2022-11-09T04:42:08.721Z,100223.06
2022-11-09T04:44:37.636Z,100224.16
2022-11-09T04:47:06.507Z,100221.46
2022-11-09T04:49:35.403Z,100221.83
2022-11-09T04:52:04.425Z,100219.81
2022-11-09T04:54:34.111Z,100219.13
2022-11-09T04:57:03.082Z,100220.38
2022-11-09T04:59:32.109Z,100221.09
2022-11-09T05:02:01.123Z,100221.96
2022-11-09T05:04:30.084Z,100217.48
2022-11-09T05:06:59.032Z,100210.73
2022-11-09T05:09:27.975Z,100206.14
2022-11-09T05:11:57.018Z,100208.47
2022-11-09T05:14:25.944Z,100209.02
2022-11-09T05:16:56.013Z,100204.70
2022-11-09T05:19:25.035Z,100203.27
2022-11-09T05:21:54.134Z,100204.22
2022-11-09T05:24:23.041Z,100207.11
2022-11-09T05:26:53.738Z,100202.61
2022-11-09T05:29:22.731Z,100200.05
2022-11-09T05:31:52.568Z,100201.52
2022-11-09T05:34:21.645Z,100199.11
2022-11-09T05:36:50.601Z,100196.89
2022-11-09T05:39:19.642Z,100199.73
2022-11-09T05:41:48.603Z,100193.81
2022-11-09T05:44:17.503Z,100197.60
2022-11-09T05:46:46.402Z,100207.58
2022-11-09T05:49:15.445Z,100210.29
2022-11-09T05:51:44.460Z,100209.36
2022-11-09T05:54:13.381Z,100210.89
2022-11-09T05:56:42.405Z,100208.91
2022-11-09T05:59:11.464Z,100210.69
2022-11-09T06:01:40.686Z,100210.77
2022-11-09T06:04:09.961Z,100210.14
2022-11-09T06:06:38.946Z,100210.91
2022-11-09T06:09:10.549Z,100213.55
2022-11-09T06:11:41.248Z,100212.59
2022-11-09T06:14:10.326Z,100215.83
2022-11-09T06:16:39.195Z,100218.86
2022-11-09T06:19:08.203Z,100220.68
2022-11-09T06:21:37.233Z,100221.10
2022-11-09T06:24:06.669Z,100219.46
2022-11-09T06:26:35.943Z,100224.88
2022-11-09T06:29:05.903Z,100229.12
2022-11-09T06:31:34.946Z,100230.55
2022-11-09T06:34:04.281Z,100231.62
2022-11-09T06:36:33.277Z,100233.23
2022-11-09T06:39:02.216Z,100229.70
2022-11-09T06:41:31.185Z,100229.28
2022-11-09T06:44:00.179Z,100225.83
2022-11-09T06:46:31.847Z,100225.11
2022-11-09T06:49:01.235Z,100229.19
2022-11-09T06:51:30.219Z,100225.45
2022-11-09T06:53:59.202Z,100222.11
2022-11-09T06:56:28.156Z,100227.94
2022-11-09T06:58:57.123Z,100231.13
2022-11-09T07:01:29.486Z,100231.70
2022-11-09T07:03:58.456Z,100229.88
2022-11-09T07:06:27.458Z,100232.52
2022-11-09T07:08:56.842Z,100228.05
2022-11-09T07:11:25.763Z,100224.19
2022-11-09T07:13:57.381Z,100221.21
2022-11-09T07:16:27.016Z,100218.23
2022-11-09T07:18:55.955Z,100222.03
2022-11-09T07:21:25.348Z,100220.55
2022-11-09T07:23:54.379Z,100218.66
2022-11-09T07:26:23.324Z,100218.04
2022-11-09T07:28:52.327Z,100221.55
2022-11-09T07:31:21.449Z,100219.00
2022-11-09T07:33:50.902Z,100224.08
2022-11-09T07:36:21.711Z,100227.45
2022-11-09T07:38:51.032Z,100230.36
2022-11-09T07:41:20.029Z,100221.34
2022-11-09T07:43:48.974Z,100220.29
2022-11-09T07:46:18.031Z,100222.62
2022-11-09T07:48:47.014Z,100223.69
2022-11-09T07:51:15.945Z,100226.05
2022-11-09T07:53:44.981Z,100230.06
2022-11-09T07:56:14.042Z,100231.06
2022-11-09T07:58:43.037Z,100228.29
2022-11-09T08:01:12.592Z,100227.21
2022-11-09T08:03:41.959Z,100223.45
2022-11-09T08:06:15.628Z,100229.45
2022-11-09T08:08:48.048Z,100224.48
2022-11-09T08:11:17.093Z,100227.89
2022-11-09T08:13:46.219Z,100224.66
2022-11-09T08:16:15.398Z,100221.81
2022-11-09T08:18:45.088Z,100222.30
2022-11-09T08:21:14.304Z,100220.11
2022-11-09T08:23:43.329Z,100225.38
2022-11-09T08:26:12.850Z,100226.48
2022-11-09T08:28:42.087Z,100224.23
2022-11-09T08:31:11.077Z,100221.49
2022-11-09T08:33:42.438Z,100219.57
2022-11-09T08:36:14.735Z,100229.05
2022-11-09T08:38:45.596Z,100223.40
2022-11-09T08:41:14.754Z,100220.64
2022-11-09T08:43:43.720Z,100216.80
2022-11-09T08:46:12.726Z,100220.65
2022-11-09T08:48:41.708Z,100222.81
2022-11-09T08:51:10.681Z,100221.04
2022-11-09T08:53:39.591Z,100220.02
2022-11-09T08:56:09.805Z,100219.05
2022-11-09T08:58:39.566Z,100217.39
2022-11-09T09:01:13.912Z,100219.30
2022-11-09T09:03:46.935Z,100214.61
2022-11-09T09:06:16.052Z,100220.48
2022-11-09T09:08:44.999Z,100221.37
2022-11-09T09:11:14.001Z,100226.70
2022-11-09T09:13:43.713Z,100225.87
2022-11-09T09:16:15.731Z,100223.17
2022-11-09T09:18:47.622Z,100222.17
2022-11-09T09:21:16.939Z,100220.45
2022-11-09T09:23:50.896Z,100220.98
2022-11-09T09:26:19.929Z,100220.45
2022-11-09T09:28:48.902Z,100224.59
2022-11-09T09:31:18.844Z,100228.83
2022-11-09T09:33:48.249Z,100232.31
2022-11-09T09:36:20.679Z,100231.41
2022-11-09T09:38:54.725Z,100232.91
2022-11-09T09:41:35.689Z,100237.30
2022-11-09T09:44:24.209Z,100230.69
2022-11-09T09:47:20.212Z,100231.08
2022-11-09T09:50:10.384Z,100233.38
2022-11-09T09:53:04.594Z,100232.90
2022-11-09T09:55:43.108Z,100235.02
2022-11-09T09:58:19.647Z,100234.84
2022-11-09T10:00:56.058Z,100233.48
2022-11-09T10:03:25.148Z,100237.15
2022-11-09T10:06:38.133Z,100233.55
2022-11-09T10:09:39.944Z,100233.17
2022-11-09T10:12:29.760Z,100232.71
2022-11-09T10:15:33.260Z,100234.45
2022-11-09T10:18:37.479Z,100234.05
2022-11-09T10:21:27.875Z,100238.80
2022-11-09T10:24:27.278Z,100236.27
2022-11-09T10:26:59.157Z,100233.05
2022-11-09T10:29:49.077Z,100232.30
2022-11-09T10:32:21.444Z,100237.02
2022-11-09T10:35:12.050Z,100234.44
2022-11-09T10:37:46.562Z,100235.85
2022-11-09T10:40:32.122Z,100236.09
2022-11-09T10:43:19.808Z,100233.48
2022-11-09T10:46:09.074Z,100233.55
2022-11-09T10:48:56.681Z,100231.64
2022-11-09T10:51:48.416Z,100232.35
2022-11-09T10:54:38.225Z,100227.00
2022-11-09T10:57:26.040Z,100225.46
2022-11-09T11:00:21.982Z,100227.89
2022-11-09T11:03:18.480Z,100228.07
2022-11-09T11:06:19.565Z,100230.67
2022-11-09T11:09:06.997Z,100229.46
2022-11-09T11:12:20.340Z,100228.73
2022-11-09T11:15:30.026Z,100230.19
2022-11-09T11:18:24.975Z,100233.52
2022-11-09T11:21:25.521Z,100230.54
2022-11-09T11:24:20.918Z,100234.29
2022-11-09T11:27:39.620Z,100235.92
2022-11-09T11:30:35.185Z,100244.23
2022-11-09T11:33:22.987Z,100253.10
2022-11-09T11:36:43.234Z,100251.00
2022-11-09T11:39:52.638Z,100251.48
2022-11-09T11:43:10.110Z,100253.71
2022-11-09T11:46:38.807Z,100260.91
2022-11-09T11:49:35.035Z,100262.03
2022-11-09T11:52:38.048Z,100262.89
2022-11-09T11:55:43.668Z,100260.88
2022-11-09T11:58:33.537Z,100260.40
2022-11-09T12:01:47.967Z,100254.39
2022-11-09T12:05:19.066Z,100254.35
2022-11-09T12:09:03.653Z,100257.77
2022-11-09T12:12:25.699Z,100258.83
2022-11-09T12:16:04.071Z,100265.27
2022-11-09T12:19:22.574Z,100267.13
2022-11-09T12:23:33.738Z,100265.09
2022-11-09T12:27:04.714Z,100263.55
2022-11-09T12:30:09.750Z,100261.02
2022-11-09T12:33:07.957Z,100263.83
2022-11-09T12:36:10.485Z,100260.08
2022-11-09T12:39:16.219Z,100260.61
2022-11-09T12:42:21.896Z,100258.31
2022-11-09T12:45:25.070Z,100259.86
2022-11-09T12:48:30.692Z,100271.66
2022-11-09T12:51:19.820Z,100267.73
2022-11-09T12:54:11.912Z,100268.02
2022-11-09T12:57:10.398Z,100270.95
2022-11-09T13:00:01.295Z,100272.81
2022-11-09T13:02:57.106Z,100267.64
2022-11-09T13:05:47.697Z,100263.51
2022-11-09T13:08:36.032Z,100265.90
2022-11-09T13:11:51.776Z,100256.09
2022-11-09T13:14:39.600Z,100243.45
2022-11-09T13:17:27.396Z,100238.46
2022-11-09T13:24:04.466Z,100219.58
2022-11-09T13:26:59.975Z,100215.95
2022-11-09T13:29:56.327Z,100214.45
2022-11-09T13:33:06.266Z,100219.22
2022-11-09T13:36:09.775Z,100216.77
2022-11-09T13:39:38.171Z,100217.73
2022-11-09T13:42:36.808Z,100215.67
2022-11-09T13:45:30.556Z,100212.85
2022-11-09T13:48:48.585Z,100212.92
2022-11-09T13:51:36.295Z,100219.81
2022-11-09T13:54:44.537Z,100225.83
2022-11-09T13:57:33.100Z,100227.18
2022-11-09T14:00:26.280Z,100227.87
2022-11-09T14:03:24.490Z,100232.63
2022-11-09T14:06:15.656Z,100231.81
2022-11-09T14:09:03.798Z,100232.19
2022-11-09T14:12:24.026Z,100225.39
2022-11-09T14:15:47.355Z,100220.52
2022-11-09T14:18:48.449Z,100221.91
2022-11-09T14:21:54.136Z,100217.69
2022-11-09T14:24:46.501Z,100218.82
2022-11-09T14:27:35.263Z,100215.15
2022-11-09T14:30:26.762Z,100210.52
2022-11-09T14:33:36.940Z,100211.71
2022-11-09T14:36:27.411Z,100219.52
2022-11-09T14:39:34.125Z,100218.18
2022-11-09T14:42:26.544Z,100222.00
2022-11-09T14:45:18.868Z,100221.81
2022-11-09T14:48:08.535Z,100231.30
2022-11-09T14:51:07.184Z,100229.95
2022-11-09T14:53:56.434Z,100232.73
2022-11-09T14:56:45.736Z,100230.99
2022-11-09T14:59:36.258Z,100227.57
2022-11-09T15:02:30.060Z,100221.73
2022-11-09T15:05:38.081Z,100225.23
2022-11-09T15:08:29.064Z,100218.44
2022-11-09T15:11:34.634Z,100225.73
2022-11-09T15:14:33.953Z,100227.59
2022-11-09T15:17:36.044Z,100225.36
2022-11-09T15:20:34.535Z,100225.97
2022-11-09T15:23:43.232Z,100225.78
2022-11-09T15:26:42.092Z,100230.27
2022-11-09T15:29:39.450Z,100235.59
2022-11-09T15:32:40.625Z,100243.78
2022-11-09T15:35:32.423Z,100249.73
2022-11-09T15:38:44.960Z,100249.66
2022-11-09T15:41:32.454Z,100249.40
2022-11-09T15:44:21.106Z,100249.22
2022-11-09T15:47:27.901Z,100251.83
2022-11-09T15:50:28.987Z,100246.25
2022-11-09T15:53:16.985Z,100242.08
2022-11-09T15:56:09.924Z,100249.83
2022-11-09T15:58:57.852Z,100250.33
2022-11-09T16:01:51.232Z,100250.70
2022-11-09T16:04:39.818Z,100249.88
2022-11-09T16:07:43.139Z,100245.09
2022-11-09T16:10:31.186Z,100245.11
2022-11-09T16:13:18.853Z,100239.53
2022-11-09T16:16:09.449Z,100244.70
2022-11-09T16:18:59.657Z,100249.84
2022-11-09T16:21:47.752Z,100253.20
2022-11-09T16:24:35.396Z,100257.41
2022-11-09T16:27:48.566Z,100259.40
2022-11-09T16:30:33.964Z,100258.15
2022-11-09T16:33:22.727Z,100252.39
2022-11-09T16:36:23.182Z,100251.67
2022-11-09T16:39:18.340Z,100257.96
2022-11-09T16:42:13.251Z,100263.14
2022-11-09T16:45:12.594Z,100261.31
2022-11-09T16:48:03.931Z,100258.30
2022-11-09T16:50:53.798Z,100254.66
2022-11-09T16:53:42.254Z,100257.08
2022-11-09T16:56:34.733Z,100259.08
2022-11-09T16:59:23.571Z,100259.33
2022-11-09T17:02:11.014Z,100261.89
2022-11-09T17:05:06.842Z,100261.14
2022-11-09T17:07:54.397Z,100258.58
2022-11-09T17:10:47.193Z,100261.23
2022-11-09T17:13:37.177Z,100262.19
2022-11-09T17:16:25.623Z,100266.20
2022-11-09T17:19:14.771Z,100269.65
2022-11-09T17:22:05.080Z,100272.05
2022-11-09T17:24:53.091Z,100274.39
2022-11-09T17:27:44.572Z,100279.52
2022-11-09T17:30:34.073Z,100281.40
2022-11-09T17:33:25.868Z,100278.20
2022-11-09T17:36:41.563Z,100278.47
2022-11-09T17:39:31.459Z,100270.34
2022-11-09T17:42:19.126Z,100265.63
2022-11-09T17:45:10.482Z,100263.84
2022-11-09T17:47:59.538Z,100269.82
2022-11-09T17:50:47.557Z,100269.54
2022-11-09T17:53:36.493Z,100278.65
2022-11-09T17:56:25.844Z,100280.71
2022-11-09T17:59:13.912Z,100281.17
2022-11-09T18:02:01.979Z,100284.94
2022-11-09T18:04:49.623Z,100282.37
2022-11-09T18:07:37.576Z,100278.29
2022-11-09T18:10:25.184Z,100283.27
2022-11-09T18:13:15.536Z,100285.33
2022-11-09T18:16:18.843Z,100284.55
2022-11-09T18:19:06.904Z,100285.16
2022-11-09T18:21:56.375Z,100289.80
2022-11-09T18:24:44.903Z,100289.31
2022-11-09T18:27:33.336Z,100288.90
2022-11-09T18:30:23.775Z,100294.05
2022-11-09T18:33:13.859Z,100292.86
2022-11-09T18:36:20.321Z,100294.31
2022-11-09T18:39:11.246Z,100290.35
2022-11-09T18:42:03.470Z,100296.23
2022-11-09T18:44:55.292Z,100299.73
2022-11-09T18:47:43.463Z,100299.91
2022-11-09T18:50:35.504Z,100300.82
2022-11-09T18:53:29.649Z,100299.94
2022-11-09T18:56:26.284Z,100300.77
2022-11-09T18:59:18.755Z,100297.90
2022-11-09T19:02:37.047Z,100300.73
2022-11-09T19:05:27.796Z,100299.35
2022-11-09T19:08:39.768Z,100299.92
2022-11-09T19:11:35.481Z,100307.44
2022-11-09T19:14:28.905Z,100313.29
2022-11-09T19:17:23.453Z,100310.88
2022-11-09T19:20:18.558Z,100316.10
2022-11-09T19:23:15.791Z,100317.80
2022-11-09T19:26:32.440Z,100320.15
2022-11-09T19:29:22.843Z,100325.92
2022-11-09T19:32:17.117Z,100326.49
2022-11-09T19:35:08.157Z,100326.00
2022-11-09T19:46:48.955Z,100327.32
2022-11-09T19:49:39.214Z,100332.16
2022-11-09T19:52:30.879Z,100332.52
2022-11-09T19:55:32.915Z,100332.54
2022-11-09T19:58:30.100Z,100337.55
2022-11-09T20:01:36.273Z,100335.22
2022-11-09T20:04:40.838Z,100331.05
2022-11-09T20:07:40.351Z,100330.31
2022-11-09T20:10:32.683Z,100331.21
2022-11-09T20:14:03.609Z,100338.00
2022-11-09T20:17:15.542Z,100335.27
2022-11-09T20:20:10.246Z,100338.27
2022-11-09T20:23:11.496Z,100337.98
2022-11-09T20:26:13.131Z,100341.39
2022-11-09T20:29:10.291Z,100340.39
2022-11-09T20:32:03.378Z,100342.52
2022-11-09T20:35:10.190Z,100348.09
2022-11-09T20:38:02.426Z,100349.50
2022-11-09T20:41:01.310Z,100350.39
2022-11-09T20:43:49.276Z,100347.27
2022-11-09T20:46:48.444Z,100346.27
2022-11-09T20:49:39.200Z,100342.23
2022-11-09T20:52:34.066Z,100337.35
2022-11-09T20:55:23.470Z,100336.71
2022-11-09T20:58:27.482Z,100341.71
2022-11-09T21:01:22.772Z,100338.50
2022-11-09T21:04:14.987Z,100337.10
2022-11-09T21:08:40.578Z,100339.05
2022-11-09T21:10:17.290Z,100339.90
2022-11-09T21:16:27.263Z,100334.23
2022-11-09T21:22:55.503Z,100343.09
2022-11-09T21:26:07.411Z,100348.01
2022-11-09T21:29:30.883Z,100348.05
2022-11-09T21:35:30.397Z,100352.35
2022-11-09T21:38:33.565Z,100355.79
2022-11-09T21:41:39.795Z,100356.49
2022-11-09T21:44:31.740Z,100362.71
2022-11-09T21:47:19.765Z,100358.91
2022-11-09T21:50:12.503Z,100360.81
2022-11-09T21:53:05.535Z,100361.27
2022-11-09T21:55:58.204Z,100363.74
2022-11-09T21:58:48.677Z,100365.34
2022-11-09T22:01:36.663Z,100368.61
2022-11-09T22:04:24.540Z,100367.92
2022-11-09T22:07:12.514Z,100375.64
2022-11-09T22:10:16.189Z,100374.56
2022-11-09T22:13:23.988Z,100376.36
2022-11-09T22:16:12.353Z,100381.02
2022-11-09T22:19:22.028Z,100384.09
2022-11-09T22:22:12.065Z,100386.69
2022-11-09T22:24:59.762Z,100388.07
2022-11-09T22:27:47.786Z,100388.52
2022-11-09T22:30:37.883Z,100393.55
2022-11-09T22:33:27.450Z,100390.41
2022-11-09T22:36:17.129Z,100391.52
2022-11-09T22:39:07.286Z,100396.00
2022-11-09T22:41:54.945Z,100397.00
2022-11-09T22:44:42.832Z,100396.06
2022-11-09T22:47:33.433Z,100396.02
2022-11-09T22:50:21.777Z,100393.23
2022-11-09T22:53:09.748Z,100395.02
2022-11-09T22:56:01.184Z,100391.22
2022-11-09T22:58:53.987Z,100391.37
2022-11-09T23:01:42.333Z,100390.83
2022-11-09T23:04:30.252Z,100395.28
2022-11-09T23:07:23.515Z,100392.34
2022-11-09T23:10:14.011Z,100389.63
2022-11-09T23:13:29.746Z,100385.26
2022-11-09T23:16:17.357Z,100388.53
2022-11-09T23:19:10.106Z,100391.15
2022-11-09T23:22:02.699Z,100389.91
2022-11-09T23:25:09.194Z,100392.67
2022-11-09T23:27:59.217Z,100394.70
2022-11-09T23:30:47.175Z,100395.85
2022-11-09T23:33:37.042Z,100394.95
2022-11-09T23:36:29.214Z,100396.16
2022-11-09T23:39:17.967Z,100394.81
2022-11-09T23:42:05.898Z,100400.92
2022-11-09T23:44:55.530Z,100402.15
2022-11-09T23:47:46.684Z,100398.23
2022-11-09T23:50:57.079Z,100404.09
2022-11-09T23:53:59.590Z,100405.04
2022-11-09T23:57:08.214Z,100410.11
2022-11-09T23:59:56.862Z,100410.33
